LDZ weather

Londolozi Airport
Londolozi, Limpopo, South Africa

Public forecast

Using degrees Celsius for public forecast. Weather courtesy of forecast.io.

Closest aviation weather report (METAR) to Londolozi Airport

Closest report is Hoedspruit Air Force Base Airport, 32.5 nm (60.3 km) NW. Retrieved 2019/10/19 10:00 UTC (43 minutes ago):

FAHS 191000Z AUTO 03004KT //// // ////// 34/08 Q1015

Closest aviation forecast (TAF) to Londolozi Airport

Forecast is more than 12 hours old.

Closest forecast is Hoedspruit Air Force Base Airport, 32.5 nm (60.3 km) NW. Retrieved 2017/05/23 04:01 UTC (2 years ago):

TAF FAHS 230300Z 2304/2315 VRB02KT CAVOK TX29/2312ZTN12/2304Z